Ufo 3 — IUNV — position and weather

sailwx.info

Track history (hours):
 
Tides and Currents Weather Stations Pressure Air Temp Water Temp Dewpoint Dewpoint Depression Visibility Wind Speed Wind Dir Waves Ship Positions

Ufo 3

Last reported at 2017-May-27 15:16 UTC. Time now 2017-May-27 15:42 UTC.
Position N 44°08' E 009°39'.

Length 28 m.

Type: Passenger vessel. MMSI: 247031600.

Date/timePositionNaut miles runAvg speedWind from/ knotsBaromVisibWave heightAir tempDewpointWater temp
2017-May-27 15:16N 44°08' E 009°39'3 8.1
2017-May-27 14:58N 44°07' E 009°42'2 3.2
2017-May-27 14:25N 44°06' E 009°44'5 5.2
2017-May-27 13:30N 44°06' E 009°50'0 0.9
2017-May-27 13:00N 44°05' E 009°51'2 4.2
2017-May-27 12:30N 44°03' E 009°50'0 0.0
2017-May-27 11:59N 44°03' E 009°50'1 1.6
2017-May-27 11:30N 44°03' E 009°49'5 8.6
2017-May-27 10:52N 44°06' E 009°43'1 0.4
2017-May-27 08:53N 44°06' E 009°44'512.1
2017-May-27 08:30N 44°03' E 009°49'3 5.9
2017-May-27 08:00N 44°06' E 009°50'0 0.1
2017-May-27 07:30N 44°06' E 009°50'3 6.2
2017-May-27 07:00N 44°03' E 009°50'0 0.3
2017-May-27 06:30N 44°03' E 009°50'0 0.0
2017-May-27 06:00N 44°03' E 009°50'0 0.0
2017-May-27 05:30N 44°03' E 009°50'0 0.0
2017-May-27 05:00N 44°03' E 009°50'0 0.0
2017-May-27 04:25N 44°03' E 009°50'0 0.0
2017-May-27 04:00N 44°03' E 009°50'0 0.0
2017-May-27 03:30N 44°03' E 009°50'0 0.0
2017-May-26 17:11N 44°03' E 009°50'1 6.1
2017-May-26 17:00N 44°03' E 009°52'1 2.2
2017-May-26 16:30N 44°03' E 009°50'3 6.7
2017-May-26 16:01N 44°04' E 009°54'3 6.6
2017-May-26 15:30N 44°03' E 009°50'2 4.0
2017-May-26 15:00N 44°04' E 009°53'5 5.0
2017-May-26 14:00N 44°04' E 009°46'2 4.5
2017-May-26 13:30N 44°06' E 009°43'4 6.6
2017-May-26 12:54N 44°09' E 009°39'0 0.2
2017-May-26 12:29N 44°09' E 009°39'0 0.0
2017-May-26 11:57N 44°09' E 009°39'0 0.1
2017-May-26 11:19N 44°09' E 009°39'1 0.3
2017-May-26 09:46N 44°08' E 009°40'1 1.8
2017-May-26 09:28N 44°09' E 009°39'4 7.2
2017-May-26 08:55N 44°06' E 009°43'1 1.3
2017-May-26 08:30N 44°05' E 009°44'510.5
2017-May-26 08:00N 44°03' E 009°50'3 6.9
2017-May-26 07:30N 44°04' E 009°55'2 5.0
2017-May-26 07:00N 44°03' E 009°51'1 1.9
2017-May-26 06:30N 44°03' E 009°50'0 0.0
2017-May-26 06:00N 44°03' E 009°50'0 0.8
2017-May-26 05:30N 44°03' E 009°51'0 0.0
2017-May-26 05:00N 44°03' E 009°51'0 0.0
2017-May-26 04:30N 44°03' E 009°51'0 0.0
2017-May-26 04:00N 44°03' E 009°51'0 0.0
2017-May-26 03:30N 44°03' E 009°51'0 0.0
2017-May-25 14:00N 44°03' E 009°51'3 6.6
2017-May-25 13:30N 44°04' E 009°47'5 2.6
2017-May-25 11:46N 44°07' E 009°42'2 6.7
2017-May-25 11:30N 44°06' E 009°43'510.5
2017-May-25 11:00N 44°03' E 009°49'2 4.5
2017-May-25 10:30N 44°05' E 009°51'1 2.5
2017-May-25 10:00N 44°06' E 009°50'0 0.0
2017-May-25 09:30N 44°06' E 009°50'0 0.0
2017-May-25 09:00N 44°06' E 009°50'0 0.0
2017-May-25 08:30N 44°06' E 009°50'0 0.0
2017-May-25 08:00N 44°06' E 009°50'0 0.0
2017-May-25 07:30N 44°06' E 009°50'0 0.0
2017-May-25 07:00N 44°06' E 009°50'1 2.9
2017-May-25 06:30N 44°05' E 009°51'2 3.8
2017-May-25 06:00N 44°03' E 009°50'0 0.0
2017-May-25 05:30N 44°03' E 009°50'0 0.0
2017-May-25 05:00N 44°03' E 009°50'0 0.0
2017-May-25 04:30N 44°03' E 009°50'0 0.0
2017-May-25 04:00N 44°03' E 009°50'0 0.0
2017-May-25 03:30N 44°03' E 009°50'0 0.0
2017-May-24 16:11N 44°03' E 009°50'1 6.0
2017-May-24 16:01N 44°04' E 009°51'1 1.2
2017-May-24 15:31N 44°03' E 009°51'0 0.9
2017-May-24 14:59N 44°03' E 009°50'0 0.0
2017-May-24 14:30N 44°03' E 009°50'3 3.4
2017-May-24 13:30N 44°04' E 009°46'3 5.2
2017-May-24 12:57N 44°06' E 009°43'3 6.0
2017-May-24 12:22N 44°09' E 009°39'2 1.1
2017-May-24 10:34N 44°09' E 009°36'118.0
2017-May-24 10:30N 44°08' E 009°37'3 4.2
2017-May-24 09:53N 44°07' E 009°41'3 6.1
2017-May-24 09:27N 44°06' E 009°44'512.0
2017-May-24 09:01N 44°03' E 009°50'3 6.8
2017-May-24 08:30N 44°04' E 009°55'0 0.0
2017-May-24 08:00N 44°04' E 009°55'3 6.9
2017-May-24 07:31N 44°03' E 009°50'0 0.0
2017-May-24 07:00N 44°03' E 009°50'0 0.0
2017-May-24 06:30N 44°03' E 009°50'0 0.0
2017-May-24 06:00N 44°03' E 009°50'0 0.0
2017-May-24 05:30N 44°03' E 009°50'0 0.9
2017-May-24 05:00N 44°03' E 009°51'0 0.0
2017-May-24 04:30N 44°03' E 009°51'0 0.0
2017-May-24 04:00N 44°03' E 009°51'0 0.0
2017-May-24 03:30N 44°03' E 009°51'0 0.0
2017-May-23 15:34N 44°03' E 009°51'0 0.4
2017-May-23 15:30N 44°03' E 009°51'0 0.8
2017-May-23 15:00N 44°03' E 009°50'3 3.0
2017-May-23 14:01N 44°04' E 009°46'3 6.2
2017-May-23 13:30N 44°06' E 009°43'3 1.0
2017-May-23 10:36N 44°08' E 009°40'1 6.8
2017-May-23 10:30N 44°08' E 009°39'4 3.6
2017-May-23 09:20N 44°06' E 009°44'515.6
2017-May-23 09:01N 44°03' E 009°50'1 1.8
2017-May-23 08:30N 44°03' E 009°51'3 6.7
2017-May-23 08:00N 44°06' E 009°50'0 0.1
2017-May-23 07:30N 44°06' E 009°50'3 6.0
2017-May-23 07:00N 44°03' E 009°50'0 0.0
2017-May-23 06:30N 44°03' E 009°50'0 0.0
2017-May-23 06:01N 44°03' E 009°50'0 0.0
2017-May-23 05:30N 44°03' E 009°50'0 0.9
2017-May-23 05:01N 44°03' E 009°51'0 0.0
2017-May-23 04:30N 44°03' E 009°51'0 0.0
2017-May-23 04:00N 44°03' E 009°51'0 0.0
2017-May-21 16:59N 44°03' E 009°51'2 3.9
2017-May-21 16:30N 44°04' E 009°53'2 4.4
2017-May-21 16:00N 44°03' E 009°50'0 0.0
2017-May-21 15:30N 44°03' E 009°50'1 2.4
2017-May-21 15:00N 44°03' E 009°52'1 1.1
2017-May-21 14:30N 44°04' E 009°53'2 2.0
2017-May-21 13:30N 44°03' E 009°50'1 1.2
2017-May-21 13:00N 44°03' E 009°50'2 4.3
2017-May-21 12:30N 44°04' E 009°53'1 2.5
2017-May-21 12:00N 44°04' E 009°55'0 0.0
2017-May-21 11:30N 44°04' E 009°55'3 6.3
2017-May-21 11:00N 44°03' E 009°51'1 1.7
2017-May-21 10:30N 44°02' E 009°50'1 1.6
2017-May-21 10:00N 44°03' E 009°50'3 6.9
2017-May-21 09:30N 44°04' E 009°55'3 6.1
2017-May-21 09:01N 44°06' E 009°51'1 1.1
2017-May-21 08:30N 44°06' E 009°50'3 5.6
2017-May-21 08:01N 44°03' E 009°50'3 6.8
2017-May-21 07:30N 44°04' E 009°55'3 0.8
2017-May-21 03:18N 44°03' E 009°50'0 0.0
2017-May-20 16:03N 44°03' E 009°50'0 0.0
2017-May-20 16:00N 44°03' E 009°50'2 3.7
2017-May-20 15:30N 44°04' E 009°53'2 3.7
2017-May-20 15:00N 44°03' E 009°50'0 0.0
2017-May-20 14:30N 44°03' E 009°50'0 0.0
2017-May-20 13:30N 44°03' E 009°50'0 0.0
2017-May-20 13:00N 44°03' E 009°50'0 0.0
2017-May-20 12:30N 44°03' E 009°50'0 0.0
2017-May-20 12:00N 44°03' E 009°50'0 0.0
2017-May-20 11:30N 44°03' E 009°50'0 0.0
2017-May-20 11:00N 44°03' E 009°50'0 0.0
2017-May-20 10:30N 44°03' E 009°50'0 0.0
2017-May-20 10:00N 44°03' E 009°50'3 6.9
2017-May-20 09:30N 44°04' E 009°55'0 0.0
2017-May-20 09:00N 44°04' E 009°55'1 2.5
2017-May-20 08:30N 44°04' E 009°53'2 3.7
2017-May-20 08:00N 44°03' E 009°51'0 0.0
2017-May-20 07:31N 44°03' E 009°51'0 0.0
2017-May-20 05:12N 44°03' E 009°51'0 0.0
2017-May-20 05:01N 44°03' E 009°51'0 0.0
2017-May-20 04:31N 44°03' E 009°51'0 0.0
2017-May-20 04:01N 44°03' E 009°51'0 0.0
2017-May-19 11:18N 44°03' E 009°51'0 0.0
2017-May-19 10:58N 44°03' E 009°51'1 2.6
2017-May-19 10:30N 44°03' E 009°49'1 0.1
2017-May-18 16:03N 44°03' E 009°51'0 0.3
2017-May-18 16:00N 44°03' E 009°51'1 2.1
2017-May-18 15:31N 44°04' E 009°52'510.2
2017-May-18 15:00N 44°05' E 009°45'2 4.6
2017-May-18 14:30N 44°06' E 009°43'1 0.6
2017-May-18 12:47N 44°07' E 009°42'2 4.1
2017-May-18 12:17N 44°06' E 009°44'415.2
2017-May-18 12:01N 44°03' E 009°49'1 2.0
2017-May-18 11:30N 44°03' E 009°50'0 0.0
2017-May-18 11:00N 44°03' E 009°50'0 0.0
2017-May-18 10:30N 44°03' E 009°50'0 0.0
2017-May-18 10:00N 44°03' E 009°50'4 7.8
2017-May-18 09:31N 44°05' E 009°45'6 4.9
2017-May-18 08:21N 44°08' E 009°39'10 2.0
2017-May-18 03:23N 44°03' E 009°51'  
Track history (hours):
 
Tides and Currents Weather Stations Pressure Air Temp Water Temp Dewpoint Dewpoint Depression Visibility Wind Speed Wind Dir Waves Ship Positions

Ufo 3

Last reported at 2017-May-27 15:16 UTC. Time now 2017-May-27 15:42 UTC.
Position N 44°08' E 009°39'.

Length 28 m.

Type: Passenger vessel. MMSI: 247031600.

Date/timePositionNaut miles runAvg speedWind from/ knotsBaromVisibWave heightAir tempDewpointWater temp
2017-May-27 15:16N 44°08' E 009°39'3 8.1
2017-May-27 14:58N 44°07' E 009°42'2 3.2
2017-May-27 14:25N 44°06' E 009°44'5 5.2
2017-May-27 13:30N 44°06' E 009°50'0 0.9
2017-May-27 13:00N 44°05' E 009°51'2 4.2
2017-May-27 12:30N 44°03' E 009°50'0 0.0
2017-May-27 11:59N 44°03' E 009°50'1 1.6
2017-May-27 11:30N 44°03' E 009°49'5 8.6
2017-May-27 10:52N 44°06' E 009°43'1 0.4
2017-May-27 08:53N 44°06' E 009°44'512.1
2017-May-27 08:30N 44°03' E 009°49'3 5.9
2017-May-27 08:00N 44°06' E 009°50'0 0.1
2017-May-27 07:30N 44°06' E 009°50'3 6.2
2017-May-27 07:00N 44°03' E 009°50'0 0.3
2017-May-27 06:30N 44°03' E 009°50'0 0.0
2017-May-27 06:00N 44°03' E 009°50'0 0.0
2017-May-27 05:30N 44°03' E 009°50'0 0.0
2017-May-27 05:00N 44°03' E 009°50'0 0.0
2017-May-27 04:25N 44°03' E 009°50'0 0.0
2017-May-27 04:00N 44°03' E 009°50'0 0.0
2017-May-27 03:30N 44°03' E 009°50'0 0.0
2017-May-26 17:11N 44°03' E 009°50'1 6.1
2017-May-26 17:00N 44°03' E 009°52'1 2.2
2017-May-26 16:30N 44°03' E 009°50'3 6.7
2017-May-26 16:01N 44°04' E 009°54'3 6.6
2017-May-26 15:30N 44°03' E 009°50'2 4.0
2017-May-26 15:00N 44°04' E 009°53'5 5.0
2017-May-26 14:00N 44°04' E 009°46'2 4.5
2017-May-26 13:30N 44°06' E 009°43'4 6.6
2017-May-26 12:54N 44°09' E 009°39'0 0.2
2017-May-26 12:29N 44°09' E 009°39'0 0.0
2017-May-26 11:57N 44°09' E 009°39'0 0.1
2017-May-26 11:19N 44°09' E 009°39'1 0.3
2017-May-26 09:46N 44°08' E 009°40'1 1.8
2017-May-26 09:28N 44°09' E 009°39'4 7.2
2017-May-26 08:55N 44°06' E 009°43'1 1.3
2017-May-26 08:30N 44°05' E 009°44'510.5
2017-May-26 08:00N 44°03' E 009°50'3 6.9
2017-May-26 07:30N 44°04' E 009°55'2 5.0
2017-May-26 07:00N 44°03' E 009°51'1 1.9
2017-May-26 06:30N 44°03' E 009°50'0 0.0
2017-May-26 06:00N 44°03' E 009°50'0 0.8
2017-May-26 05:30N 44°03' E 009°51'0 0.0
2017-May-26 05:00N 44°03' E 009°51'0 0.0
2017-May-26 04:30N 44°03' E 009°51'0 0.0
2017-May-26 04:00N 44°03' E 009°51'0 0.0
2017-May-26 03:30N 44°03' E 009°51'0 0.0
2017-May-25 14:00N 44°03' E 009°51'3 6.6
2017-May-25 13:30N 44°04' E 009°47'5 2.6
2017-May-25 11:46N 44°07' E 009°42'2 6.7
2017-May-25 11:30N 44°06' E 009°43'510.5
2017-May-25 11:00N 44°03' E 009°49'2 4.5
2017-May-25 10:30N 44°05' E 009°51'1 2.5
2017-May-25 10:00N 44°06' E 009°50'0 0.0
2017-May-25 09:30N 44°06' E 009°50'0 0.0
2017-May-25 09:00N 44°06' E 009°50'0 0.0
2017-May-25 08:30N 44°06' E 009°50'0 0.0
2017-May-25 08:00N 44°06' E 009°50'0 0.0
2017-May-25 07:30N 44°06' E 009°50'0 0.0
2017-May-25 07:00N 44°06' E 009°50'1 2.9
2017-May-25 06:30N 44°05' E 009°51'2 3.8
2017-May-25 06:00N 44°03' E 009°50'0 0.0
2017-May-25 05:30N 44°03' E 009°50'0 0.0
2017-May-25 05:00N 44°03' E 009°50'0 0.0
2017-May-25 04:30N 44°03' E 009°50'0 0.0
2017-May-25 04:00N 44°03' E 009°50'0 0.0
2017-May-25 03:30N 44°03' E 009°50'0 0.0
2017-May-24 16:11N 44°03' E 009°50'1 6.0
2017-May-24 16:01N 44°04' E 009°51'1 1.2
2017-May-24 15:31N 44°03' E 009°51'0 0.9
2017-May-24 14:59N 44°03' E 009°50'0 0.0
2017-May-24 14:30N 44°03' E 009°50'3 3.4
2017-May-24 13:30N 44°04' E 009°46'3 5.2
2017-May-24 12:57N 44°06' E 009°43'3 6.0
2017-May-24 12:22N 44°09' E 009°39'2 1.1
2017-May-24 10:34N 44°09' E 009°36'118.0
2017-May-24 10:30N 44°08' E 009°37'3 4.2
2017-May-24 09:53N 44°07' E 009°41'3 6.1
2017-May-24 09:27N 44°06' E 009°44'512.0
2017-May-24 09:01N 44°03' E 009°50'3 6.8
2017-May-24 08:30N 44°04' E 009°55'0 0.0
2017-May-24 08:00N 44°04' E 009°55'3 6.9
2017-May-24 07:31N 44°03' E 009°50'0 0.0
2017-May-24 07:00N 44°03' E 009°50'0 0.0
2017-May-24 06:30N 44°03' E 009°50'0 0.0
2017-May-24 06:00N 44°03' E 009°50'0 0.0
2017-May-24 05:30N 44°03' E 009°50'0 0.9
2017-May-24 05:00N 44°03' E 009°51'0 0.0
2017-May-24 04:30N 44°03' E 009°51'0 0.0
2017-May-24 04:00N 44°03' E 009°51'0 0.0
2017-May-24 03:30N 44°03' E 009°51'0 0.0
2017-May-23 15:34N 44°03' E 009°51'0 0.4
2017-May-23 15:30N 44°03' E 009°51'0 0.8
2017-May-23 15:00N 44°03' E 009°50'3 3.0
2017-May-23 14:01N 44°04' E 009°46'3 6.2
2017-May-23 13:30N 44°06' E 009°43'3 1.0
2017-May-23 10:36N 44°08' E 009°40'1 6.8
2017-May-23 10:30N 44°08' E 009°39'4 3.6
2017-May-23 09:20N 44°06' E 009°44'515.6
2017-May-23 09:01N 44°03' E 009°50'1 1.8
2017-May-23 08:30N 44°03' E 009°51'3 6.7
2017-May-23 08:00N 44°06' E 009°50'0 0.1
2017-May-23 07:30N 44°06' E 009°50'3 6.0
2017-May-23 07:00N 44°03' E 009°50'0 0.0
2017-May-23 06:30N 44°03' E 009°50'0 0.0
2017-May-23 06:01N 44°03' E 009°50'0 0.0
2017-May-23 05:30N 44°03' E 009°50'0 0.9
2017-May-23 05:01N 44°03' E 009°51'0 0.0
2017-May-23 04:30N 44°03' E 009°51'0 0.0
2017-May-23 04:00N 44°03' E 009°51'0 0.0
2017-May-21 16:59N 44°03' E 009°51'2 3.9
2017-May-21 16:30N 44°04' E 009°53'2 4.4
2017-May-21 16:00N 44°03' E 009°50'0 0.0
2017-May-21 15:30N 44°03' E 009°50'1 2.4
2017-May-21 15:00N 44°03' E 009°52'1 1.1
2017-May-21 14:30N 44°04' E 009°53'2 2.0
2017-May-21 13:30N 44°03' E 009°50'1 1.2
2017-May-21 13:00N 44°03' E 009°50'2 4.3
2017-May-21 12:30N 44°04' E 009°53'1 2.5
2017-May-21 12:00N 44°04' E 009°55'0 0.0
2017-May-21 11:30N 44°04' E 009°55'3 6.3
2017-May-21 11:00N 44°03' E 009°51'1 1.7
2017-May-21 10:30N 44°02' E 009°50'1 1.6
2017-May-21 10:00N 44°03' E 009°50'3 6.9
2017-May-21 09:30N 44°04' E 009°55'3 6.1
2017-May-21 09:01N 44°06' E 009°51'1 1.1
2017-May-21 08:30N 44°06' E 009°50'3 5.6
2017-May-21 08:01N 44°03' E 009°50'3 6.8
2017-May-21 07:30N 44°04' E 009°55'3 0.8
2017-May-21 03:18N 44°03' E 009°50'0 0.0
2017-May-20 16:03N 44°03' E 009°50'0 0.0
2017-May-20 16:00N 44°03' E 009°50'2 3.7
2017-May-20 15:30N 44°04' E 009°53'2 3.7
2017-May-20 15:00N 44°03' E 009°50'0 0.0
2017-May-20 14:30N 44°03' E 009°50'0 0.0
2017-May-20 13:30N 44°03' E 009°50'0 0.0
2017-May-20 13:00N 44°03' E 009°50'0 0.0
2017-May-20 12:30N 44°03' E 009°50'0 0.0
2017-May-20 12:00N 44°03' E 009°50'0 0.0
2017-May-20 11:30N 44°03' E 009°50'0 0.0
2017-May-20 11:00N 44°03' E 009°50'0 0.0
2017-May-20 10:30N 44°03' E 009°50'0 0.0
2017-May-20 10:00N 44°03' E 009°50'3 6.9
2017-May-20 09:30N 44°04' E 009°55'0 0.0
2017-May-20 09:00N 44°04' E 009°55'1 2.5
2017-May-20 08:30N 44°04' E 009°53'2 3.7
2017-May-20 08:00N 44°03' E 009°51'0 0.0
2017-May-20 07:31N 44°03' E 009°51'0 0.0
2017-May-20 05:12N 44°03' E 009°51'0 0.0
2017-May-20 05:01N 44°03' E 009°51'0 0.0
2017-May-20 04:31N 44°03' E 009°51'0 0.0
2017-May-20 04:01N 44°03' E 009°51'0 0.0
2017-May-19 11:18N 44°03' E 009°51'0 0.0
2017-May-19 10:58N 44°03' E 009°51'1 2.6
2017-May-19 10:30N 44°03' E 009°49'1 0.1
2017-May-18 16:03N 44°03' E 009°51'0 0.3
2017-May-18 16:00N 44°03' E 009°51'1 2.1
2017-May-18 15:31N 44°04' E 009°52'510.2
2017-May-18 15:00N 44°05' E 009°45'2 4.6
2017-May-18 14:30N 44°06' E 009°43'1 0.6
2017-May-18 12:47N 44°07' E 009°42'2 4.1
2017-May-18 12:17N 44°06' E 009°44'415.2
2017-May-18 12:01N 44°03' E 009°49'1 2.0
2017-May-18 11:30N 44°03' E 009°50'0 0.0
2017-May-18 11:00N 44°03' E 009°50'0 0.0
2017-May-18 10:30N 44°03' E 009°50'0 0.0
2017-May-18 10:00N 44°03' E 009°50'4 7.8
2017-May-18 09:31N 44°05' E 009°45'6 4.9
2017-May-18 08:21N 44°08' E 009°39'10 2.0
2017-May-18 03:23N 44°03' E 009°51'  

Dump ship's entire track history